sensor_id;sensor_type;location;lat;lon;timestamp;P1;durP1;ratioP1;P2;durP2;ratioP2
26756;SDS011;23848;49.798;10.228;2023-06-10T00:00:01;10.10;;;9.00;;
26756;SDS011;23848;49.798;10.228;2023-06-10T00:02:31;10.80;;;9.25;;
26756;SDS011;23848;49.798;10.228;2023-06-10T00:05:00;12.35;;;9.60;;
26756;SDS011;23848;49.798;10.228;2023-06-10T00:07:28;12.80;;;9.35;;
26756;SDS011;23848;49.798;10.228;2023-06-10T00:09:57;11.10;;;9.10;;
26756;SDS011;23848;49.798;10.228;2023-06-10T00:12:25;10.65;;;8.52;;
26756;SDS011;23848;49.798;10.228;2023-06-10T00:14:56;9.82;;;8.30;;
26756;SDS011;23848;49.798;10.228;2023-06-10T00:17:24;11.27;;;8.73;;
26756;SDS011;23848;49.798;10.228;2023-06-10T00:19:55;10.90;;;8.32;;
26756;SDS011;23848;49.798;10.228;2023-06-10T00:22:24;12.25;;;9.15;;
26756;SDS011;23848;49.798;10.228;2023-06-10T00:24:55;11.60;;;9.70;;
26756;SDS011;23848;49.798;10.228;2023-06-10T00:27:24;11.10;;;9.13;;
26756;SDS011;23848;49.798;10.228;2023-06-10T00:29:59;10.27;;;9.15;;
26756;SDS011;23848;49.798;10.228;2023-06-10T00:32:27;10.95;;;8.60;;
26756;SDS011;23848;49.798;10.228;2023-06-10T00:34:55;10.32;;;9.13;;
26756;SDS011;23848;49.798;10.228;2023-06-10T00:37:24;13.80;;;9.32;;
26756;SDS011;23848;49.798;10.228;2023-06-10T00:39:52;10.68;;;8.55;;
26756;SDS011;23848;49.798;10.228;2023-06-10T00:42:20;11.52;;;9.75;;
26756;SDS011;23848;49.798;10.228;2023-06-10T00:44:50;12.85;;;8.95;;
26756;SDS011;23848;49.798;10.228;2023-06-10T00:47:20;11.52;;;9.27;;
26756;SDS011;23848;49.798;10.228;2023-06-10T00:49:49;10.52;;;8.23;;
26756;SDS011;23848;49.798;10.228;2023-06-10T00:52:18;10.60;;;8.52;;
26756;SDS011;23848;49.798;10.228;2023-06-10T00:54:46;10.85;;;8.55;;
26756;SDS011;23848;49.798;10.228;2023-06-10T00:57:14;9.13;;;8.23;;
26756;SDS011;23848;49.798;10.228;2023-06-10T00:59:44;11.50;;;8.88;;
26756;SDS011;23848;49.798;10.228;2023-06-10T01:02:14;10.60;;;8.88;;
26756;SDS011;23848;49.798;10.228;2023-06-10T01:04:44;9.80;;;8.68;;
26756;SDS011;23848;49.798;10.228;2023-06-10T01:07:17;11.82;;;9.38;;
26756;SDS011;23848;49.798;10.228;2023-06-10T01:12:19;11.18;;;9.07;;
26756;SDS011;23848;49.798;10.228;2023-06-10T01:14:47;11.13;;;9.70;;
26756;SDS011;23848;49.798;10.228;2023-06-10T01:17:17;10.18;;;8.80;;
26756;SDS011;23848;49.798;10.228;2023-06-10T01:19:54;10.02;;;8.90;;
26756;SDS011;23848;49.798;10.228;2023-06-10T01:22:24;12.98;;;9.05;;
26756;SDS011;23848;49.798;10.228;2023-06-10T01:24:54;10.90;;;9.45;;
26756;SDS011;23848;49.798;10.228;2023-06-10T01:27:26;10.60;;;9.50;;
26756;SDS011;23848;49.798;10.228;2023-06-10T01:29:58;12.10;;;9.02;;
26756;SDS011;23848;49.798;10.228;2023-06-10T01:32:32;12.15;;;9.20;;
26756;SDS011;23848;49.798;10.228;2023-06-10T01:35:01;12.80;;;9.05;;
26756;SDS011;23848;49.798;10.228;2023-06-10T01:37:31;10.85;;;9.70;;
26756;SDS011;23848;49.798;10.228;2023-06-10T01:39:59;10.80;;;9.70;;
26756;SDS011;23848;49.798;10.228;2023-06-10T01:42:29;9.57;;;8.57;;
26756;SDS011;23848;49.798;10.228;2023-06-10T01:44:58;11.13;;;9.48;;
26756;SDS011;23848;49.798;10.228;2023-06-10T01:47:26;11.73;;;9.02;;
26756;SDS011;23848;49.798;10.228;2023-06-10T01:49:54;10.45;;;9.38;;
26756;SDS011;23848;49.798;10.228;2023-06-10T01:52:23;12.15;;;9.35;;
26756;SDS011;23848;49.798;10.228;2023-06-10T01:54:52;11.45;;;9.63;;
26756;SDS011;23848;49.798;10.228;2023-06-10T01:57:20;9.57;;;8.57;;
26756;SDS011;23848;49.798;10.228;2023-06-10T01:59:49;11.07;;;9.38;;
26756;SDS011;23848;49.798;10.228;2023-06-10T02:02:17;10.93;;;9.57;;
26756;SDS011;23848;49.798;10.228;2023-06-10T02:04:48;9.82;;;8.82;;
26756;SDS011;23848;49.798;10.228;2023-06-10T02:07:16;11.15;;;9.02;;
26756;SDS011;23848;49.798;10.228;2023-06-10T02:09:44;9.85;;;8.85;;
26756;SDS011;23848;49.798;10.228;2023-06-10T02:12:14;10.63;;;8.38;;
26756;SDS011;23848;49.798;10.228;2023-06-10T02:14:43;11.23;;;8.95;;
26756;SDS011;23848;49.798;10.228;2023-06-10T02:17:12;10.93;;;9.45;;
26756;SDS011;23848;49.798;10.228;2023-06-10T02:19:41;11.68;;;9.90;;
26756;SDS011;23848;49.798;10.228;2023-06-10T02:22:09;9.98;;;8.90;;
26756;SDS011;23848;49.798;10.228;2023-06-10T02:24:38;10.45;;;9.35;;
26756;SDS011;23848;49.798;10.228;2023-06-10T02:27:06;10.32;;;9.23;;
26756;SDS011;23848;49.798;10.228;2023-06-10T02:29:36;10.77;;;9.32;;
26756;SDS011;23848;49.798;10.228;2023-06-10T02:32:05;11.30;;;8.93;;
26756;SDS011;23848;49.798;10.228;2023-06-10T02:34:36;11.25;;;9.35;;
26756;SDS011;23848;49.798;10.228;2023-06-10T02:37:05;11.27;;;9.70;;
26756;SDS011;23848;49.798;10.228;2023-06-10T02:39:33;12.73;;;9.70;;
26756;SDS011;23848;49.798;10.228;2023-06-10T02:42:02;12.05;;;10.50;;
26756;SDS011;23848;49.798;10.228;2023-06-10T02:44:31;11.20;;;10.07;;
26756;SDS011;23848;49.798;10.228;2023-06-10T02:47:01;11.93;;;9.52;;
26756;SDS011;23848;49.798;10.228;2023-06-10T02:49:30;11.68;;;9.65;;
26756;SDS011;23848;49.798;10.228;2023-06-10T02:51:58;11.68;;;10.15;;
26756;SDS011;23848;49.798;10.228;2023-06-10T02:54:26;11.15;;;9.55;;
26756;SDS011;23848;49.798;10.228;2023-06-10T02:56:54;12.73;;;9.90;;
26756;SDS011;23848;49.798;10.228;2023-06-10T02:59:23;12.50;;;9.50;;
26756;SDS011;23848;49.798;10.228;2023-06-10T03:01:53;10.95;;;9.70;;
26756;SDS011;23848;49.798;10.228;2023-06-10T03:04:22;11.05;;;9.38;;
26756;SDS011;23848;49.798;10.228;2023-06-10T03:06:52;11.13;;;9.48;;
26756;SDS011;23848;49.798;10.228;2023-06-10T03:09:20;11.68;;;9.05;;
26756;SDS011;23848;49.798;10.228;2023-06-10T03:11:48;11.77;;;9.55;;
26756;SDS011;23848;49.798;10.228;2023-06-10T03:14:17;10.68;;;9.13;;
26756;SDS011;23848;49.798;10.228;2023-06-10T03:16:45;11.68;;;9.23;;
26756;SDS011;23848;49.798;10.228;2023-06-10T03:19:13;10.90;;;9.75;;
26756;SDS011;23848;49.798;10.228;2023-06-10T03:21:44;10.50;;;9.10;;
26756;SDS011;23848;49.798;10.228;2023-06-10T03:24:12;12.38;;;10.25;;
26756;SDS011;23848;49.798;10.228;2023-06-10T03:26:41;10.73;;;8.98;;
26756;SDS011;23848;49.798;10.228;2023-06-10T03:29:10;12.68;;;10.32;;
26756;SDS011;23848;49.798;10.228;2023-06-10T03:31:38;10.98;;;9.32;;
26756;SDS011;23848;49.798;10.228;2023-06-10T03:34:06;11.18;;;9.98;;
26756;SDS011;23848;49.798;10.228;2023-06-10T03:36:35;11.48;;;9.18;;
26756;SDS011;23848;49.798;10.228;2023-06-10T03:41:41;10.82;;;9.20;;
26756;SDS011;23848;49.798;10.228;2023-06-10T03:44:09;10.15;;;9.05;;
26756;SDS011;23848;49.798;10.228;2023-06-10T03:46:38;11.52;;;9.80;;
26756;SDS011;23848;49.798;10.228;2023-06-10T03:49:06;10.93;;;9.05;;
26756;SDS011;23848;49.798;10.228;2023-06-10T03:51:35;10.85;;;9.50;;
26756;SDS011;23848;49.798;10.228;2023-06-10T03:54:04;11.20;;;9.68;;
26756;SDS011;23848;49.798;10.228;2023-06-10T03:56:32;10.73;;;9.48;;
26756;SDS011;23848;49.798;10.228;2023-06-10T03:59:02;11.57;;;10.07;;
26756;SDS011;23848;49.798;10.228;2023-06-10T04:01:31;10.65;;;9.55;;
26756;SDS011;23848;49.798;10.228;2023-06-10T04:04:01;11.35;;;9.68;;
26756;SDS011;23848;49.798;10.228;2023-06-10T04:06:30;11.18;;;9.70;;
26756;SDS011;23848;49.798;10.228;2023-06-10T04:08:58;11.20;;;9.77;;
26756;SDS011;23848;49.798;10.228;2023-06-10T04:11:26;12.32;;;10.18;;
26756;SDS011;23848;49.798;10.228;2023-06-10T04:13:55;12.48;;;10.02;;
26756;SDS011;23848;49.798;10.228;2023-06-10T04:16:25;12.10;;;10.45;;
26756;SDS011;23848;49.798;10.228;2023-06-10T04:18:53;11.85;;;10.15;;
26756;SDS011;23848;49.798;10.228;2023-06-10T04:21:22;12.50;;;10.52;;
26756;SDS011;23848;49.798;10.228;2023-06-10T04:23:51;12.40;;;10.15;;
26756;SDS011;23848;49.798;10.228;2023-06-10T04:26:19;12.27;;;9.85;;
26756;SDS011;23848;49.798;10.228;2023-06-10T04:28:48;13.15;;;10.48;;
26756;SDS011;23848;49.798;10.228;2023-06-10T04:31:16;12.35;;;10.23;;
26756;SDS011;23848;49.798;10.228;2023-06-10T04:33:47;11.95;;;10.45;;
26756;SDS011;23848;49.798;10.228;2023-06-10T04:36:15;11.30;;;9.75;;
26756;SDS011;23848;49.798;10.228;2023-06-10T04:38:43;13.02;;;9.95;;
26756;SDS011;23848;49.798;10.228;2023-06-10T04:41:13;15.18;;;10.35;;
26756;SDS011;23848;49.798;10.228;2023-06-10T04:43:41;13.27;;;10.48;;
26756;SDS011;23848;49.798;10.228;2023-06-10T04:46:10;14.50;;;10.20;;
26756;SDS011;23848;49.798;10.228;2023-06-10T04:48:39;12.20;;;9.73;;
26756;SDS011;23848;49.798;10.228;2023-06-10T04:51:10;12.13;;;9.27;;
26756;SDS011;23848;49.798;10.228;2023-06-10T04:53:39;12.00;;;10.07;;
26756;SDS011;23848;49.798;10.228;2023-06-10T04:56:08;14.00;;;10.55;;
26756;SDS011;23848;49.798;10.228;2023-06-10T04:58:36;12.60;;;11.13;;
26756;SDS011;23848;49.798;10.228;2023-06-10T05:01:05;12.70;;;11.05;;
26756;SDS011;23848;49.798;10.228;2023-06-10T05:03:34;13.50;;;11.57;;
26756;SDS011;23848;49.798;10.228;2023-06-10T05:06:03;13.80;;;11.35;;
26756;SDS011;23848;49.798;10.228;2023-06-10T05:08:32;13.77;;;10.60;;
26756;SDS011;23848;49.798;10.228;2023-06-10T05:11:01;12.93;;;11.18;;
26756;SDS011;23848;49.798;10.228;2023-06-10T05:13:29;13.27;;;11.25;;
26756;SDS011;23848;49.798;10.228;2023-06-10T05:15:58;12.75;;;11.45;;
26756;SDS011;23848;49.798;10.228;2023-06-10T05:18:27;13.20;;;11.35;;
26756;SDS011;23848;49.798;10.228;2023-06-10T05:20:56;14.10;;;11.85;;
26756;SDS011;23848;49.798;10.228;2023-06-10T05:23:24;12.98;;;11.35;;
26756;SDS011;23848;49.798;10.228;2023-06-10T05:25:54;15.63;;;11.98;;
26756;SDS011;23848;49.798;10.228;2023-06-10T05:28:22;11.82;;;10.45;;
26756;SDS011;23848;49.798;10.228;2023-06-10T05:30:51;12.27;;;10.95;;
26756;SDS011;23848;49.798;10.228;2023-06-10T05:33:22;13.45;;;12.05;;
26756;SDS011;23848;49.798;10.228;2023-06-10T05:35:50;13.77;;;11.07;;
26756;SDS011;23848;49.798;10.228;2023-06-10T05:38:19;13.80;;;11.23;;
26756;SDS011;23848;49.798;10.228;2023-06-10T05:40:47;12.98;;;11.20;;
26756;SDS011;23848;49.798;10.228;2023-06-10T05:43:17;12.77;;;11.00;;
26756;SDS011;23848;49.798;10.228;2023-06-10T05:45:46;13.75;;;10.95;;
26756;SDS011;23848;49.798;10.228;2023-06-10T05:48:14;12.18;;;10.20;;
26756;SDS011;23848;49.798;10.228;2023-06-10T05:50:43;11.30;;;10.20;;
26756;SDS011;23848;49.798;10.228;2023-06-10T05:53:14;11.95;;;10.27;;
26756;SDS011;23848;49.798;10.228;2023-06-10T05:55:43;11.20;;;9.85;;
26756;SDS011;23848;49.798;10.228;2023-06-10T05:58:11;11.88;;;10.25;;
26756;SDS011;23848;49.798;10.228;2023-06-10T06:00:41;12.80;;;10.60;;
26756;SDS011;23848;49.798;10.228;2023-06-10T06:03:09;11.77;;;10.55;;
26756;SDS011;23848;49.798;10.228;2023-06-10T06:05:38;11.68;;;9.88;;
26756;SDS011;23848;49.798;10.228;2023-06-10T06:08:06;10.60;;;9.35;;
26756;SDS011;23848;49.798;10.228;2023-06-10T06:10:35;11.80;;;10.32;;
26756;SDS011;23848;49.798;10.228;2023-06-10T06:13:03;10.73;;;9.63;;
26756;SDS011;23848;49.798;10.228;2023-06-10T06:15:31;10.10;;;8.82;;
26756;SDS011;23848;49.798;10.228;2023-06-10T06:18:01;11.68;;;9.75;;
26756;SDS011;23848;49.798;10.228;2023-06-10T06:20:30;11.05;;;9.88;;
26756;SDS011;23848;49.798;10.228;2023-06-10T06:22:58;12.05;;;9.90;;
26756;SDS011;23848;49.798;10.228;2023-06-10T06:25:26;10.52;;;9.10;;
26756;SDS011;23848;49.798;10.228;2023-06-10T06:27:55;10.82;;;8.93;;
26756;SDS011;23848;49.798;10.228;2023-06-10T06:30:23;10.95;;;9.82;;
26756;SDS011;23848;49.798;10.228;2023-06-10T06:32:52;12.18;;;10.15;;
26756;SDS011;23848;49.798;10.228;2023-06-10T06:35:23;10.63;;;9.50;;
26756;SDS011;23848;49.798;10.228;2023-06-10T06:37:51;11.48;;;10.18;;
26756;SDS011;23848;49.798;10.228;2023-06-10T06:40:20;10.60;;;9.45;;
26756;SDS011;23848;49.798;10.228;2023-06-10T06:42:48;10.02;;;8.65;;
26756;SDS011;23848;49.798;10.228;2023-06-10T06:45:17;12.23;;;9.95;;
26756;SDS011;23848;49.798;10.228;2023-06-10T06:47:46;10.68;;;9.57;;
26756;SDS011;23848;49.798;10.228;2023-06-10T06:50:14;11.80;;;9.90;;
26756;SDS011;23848;49.798;10.228;2023-06-10T06:52:44;10.60;;;9.50;;
26756;SDS011;23848;49.798;10.228;2023-06-10T06:55:14;10.65;;;9.45;;
26756;SDS011;23848;49.798;10.228;2023-06-10T06:57:42;11.60;;;9.00;;
26756;SDS011;23848;49.798;10.228;2023-06-10T07:00:11;14.07;;;9.75;;
26756;SDS011;23848;49.798;10.228;2023-06-10T07:02:40;11.13;;;9.75;;
26756;SDS011;23848;49.798;10.228;2023-06-10T07:05:08;12.15;;;9.02;;
26756;SDS011;23848;49.798;10.228;2023-06-10T07:07:37;10.18;;;9.10;;
26756;SDS011;23848;49.798;10.228;2023-06-10T07:10:08;10.63;;;8.82;;
26756;SDS011;23848;49.798;10.228;2023-06-10T07:12:36;9.90;;;8.90;;
26756;SDS011;23848;49.798;10.228;2023-06-10T07:15:05;9.85;;;8.60;;
26756;SDS011;23848;49.798;10.228;2023-06-10T07:17:34;10.63;;;9.10;;
26756;SDS011;23848;49.798;10.228;2023-06-10T07:20:02;10.20;;;8.38;;
26756;SDS011;23848;49.798;10.228;2023-06-10T07:22:31;8.93;;;8.00;;
26756;SDS011;23848;49.798;10.228;2023-06-10T07:24:59;10.40;;;8.55;;
26756;SDS011;23848;49.798;10.228;2023-06-10T07:27:29;9.63;;;8.55;;
26756;SDS011;23848;49.798;10.228;2023-06-10T07:29:58;9.00;;;8.00;;
26756;SDS011;23848;49.798;10.228;2023-06-10T07:32:27;8.48;;;7.55;;
26756;SDS011;23848;49.798;10.228;2023-06-10T07:34:56;9.57;;;7.57;;
26756;SDS011;23848;49.798;10.228;2023-06-10T07:37:24;7.78;;;6.80;;
26756;SDS011;23848;49.798;10.228;2023-06-10T07:39:53;8.85;;;6.70;;
26756;SDS011;23848;49.798;10.228;2023-06-10T07:42:22;6.45;;;5.85;;
26756;SDS011;23848;49.798;10.228;2023-06-10T07:44:52;7.53;;;5.88;;
26756;SDS011;23848;49.798;10.228;2023-06-10T07:47:20;7.28;;;5.68;;
26756;SDS011;23848;49.798;10.228;2023-06-10T07:49:48;7.10;;;6.40;;
26756;SDS011;23848;49.798;10.228;2023-06-10T07:52:17;7.63;;;6.10;;
26756;SDS011;23848;49.798;10.228;2023-06-10T07:54:48;7.10;;;6.13;;
26756;SDS011;23848;49.798;10.228;2023-06-10T07:57:17;7.38;;;6.60;;
26756;SDS011;23848;49.798;10.228;2023-06-10T07:59:45;8.82;;;6.18;;
26756;SDS011;23848;49.798;10.228;2023-06-10T08:02:15;7.97;;;6.22;;
26756;SDS011;23848;49.798;10.228;2023-06-10T08:04:43;8.00;;;6.10;;
26756;SDS011;23848;49.798;10.228;2023-06-10T08:07:12;7.60;;;6.32;;
26756;SDS011;23848;49.798;10.228;2023-06-10T08:09:40;7.00;;;6.30;;
26756;SDS011;23848;49.798;10.228;2023-06-10T08:12:09;7.78;;;5.88;;
26756;SDS011;23848;49.798;10.228;2023-06-10T08:14:37;6.13;;;5.53;;
26756;SDS011;23848;49.798;10.228;2023-06-10T08:17:05;6.80;;;5.30;;
26756;SDS011;23848;49.798;10.228;2023-06-10T08:19:35;6.00;;;5.40;;
26756;SDS011;23848;49.798;10.228;2023-06-10T08:22:04;6.43;;;5.65;;
26756;SDS011;23848;49.798;10.228;2023-06-10T08:24:32;6.55;;;5.25;;
26756;SDS011;23848;49.798;10.228;2023-06-10T08:27:00;6.90;;;5.10;;
26756;SDS011;23848;49.798;10.228;2023-06-10T08:29:29;6.22;;;5.07;;
26756;SDS011;23848;49.798;10.228;2023-06-10T08:31:58;6.65;;;5.50;;
26756;SDS011;23848;49.798;10.228;2023-06-10T08:34:26;6.57;;;5.63;;
26756;SDS011;23848;49.798;10.228;2023-06-10T08:36:56;6.20;;;5.43;;
26756;SDS011;23848;49.798;10.228;2023-06-10T08:39:24;7.22;;;5.78;;
26756;SDS011;23848;49.798;10.228;2023-06-10T08:41:57;5.97;;;5.35;;
26756;SDS011;23848;49.798;10.228;2023-06-10T08:44:29;6.75;;;4.88;;
26756;SDS011;23848;49.798;10.228;2023-06-10T08:46:58;5.60;;;5.10;;
26756;SDS011;23848;49.798;10.228;2023-06-10T08:49:28;5.35;;;4.63;;
26756;SDS011;23848;49.798;10.228;2023-06-10T08:52:00;5.70;;;4.82;;
26756;SDS011;23848;49.798;10.228;2023-06-10T08:54:31;6.10;;;5.15;;
26756;SDS011;23848;49.798;10.228;2023-06-10T08:57:00;5.15;;;4.65;;
26756;SDS011;23848;49.798;10.228;2023-06-10T08:59:32;6.70;;;5.25;;
26756;SDS011;23848;49.798;10.228;2023-06-10T09:02:01;8.30;;;5.40;;
26756;SDS011;23848;49.798;10.228;2023-06-10T09:04:31;5.40;;;4.90;;
26756;SDS011;23848;49.798;10.228;2023-06-10T09:07:01;5.85;;;4.88;;
26756;SDS011;23848;49.798;10.228;2023-06-10T09:09:30;6.25;;;5.28;;
26756;SDS011;23848;49.798;10.228;2023-06-10T09:11:59;5.95;;;5.25;;
26756;SDS011;23848;49.798;10.228;2023-06-10T09:14:28;5.35;;;4.70;;
26756;SDS011;23848;49.798;10.228;2023-06-10T09:16:56;6.20;;;4.75;;
26756;SDS011;23848;49.798;10.228;2023-06-10T09:19:25;6.60;;;5.10;;
26756;SDS011;23848;49.798;10.228;2023-06-10T09:21:55;5.88;;;5.00;;
26756;SDS011;23848;49.798;10.228;2023-06-10T09:24:24;5.35;;;4.65;;
26756;SDS011;23848;49.798;10.228;2023-06-10T09:27:01;6.03;;;4.80;;
26756;SDS011;23848;49.798;10.228;2023-06-10T09:29:30;6.03;;;5.05;;
26756;SDS011;23848;49.798;10.228;2023-06-10T09:31:58;6.75;;;5.22;;
26756;SDS011;23848;49.798;10.228;2023-06-10T09:34:27;6.95;;;5.10;;
26756;SDS011;23848;49.798;10.228;2023-06-10T09:36:56;8.20;;;4.90;;
26756;SDS011;23848;49.798;10.228;2023-06-10T09:39:27;4.85;;;4.35;;
26756;SDS011;23848;49.798;10.228;2023-06-10T09:41:56;5.70;;;4.78;;
26756;SDS011;23848;49.798;10.228;2023-06-10T09:44:25;5.82;;;4.60;;
26756;SDS011;23848;49.798;10.228;2023-06-10T09:46:56;8.60;;;4.93;;
26756;SDS011;23848;49.798;10.228;2023-06-10T09:49:25;5.30;;;4.75;;
26756;SDS011;23848;49.798;10.228;2023-06-10T09:51:56;5.55;;;4.45;;
26756;SDS011;23848;49.798;10.228;2023-06-10T09:54:25;5.97;;;5.10;;
26756;SDS011;23848;49.798;10.228;2023-06-10T09:57:01;5.38;;;4.25;;
26756;SDS011;23848;49.798;10.228;2023-06-10T09:59:35;6.20;;;4.80;;
26756;SDS011;23848;49.798;10.228;2023-06-10T10:02:05;7.95;;;4.72;;
26756;SDS011;23848;49.798;10.228;2023-06-10T10:04:36;5.50;;;4.75;;
26756;SDS011;23848;49.798;10.228;2023-06-10T10:07:05;5.72;;;4.40;;
26756;SDS011;23848;49.798;10.228;2023-06-10T10:09:35;5.45;;;4.47;;
26756;SDS011;23848;49.798;10.228;2023-06-10T10:12:06;7.28;;;4.78;;
26756;SDS011;23848;49.798;10.228;2023-06-10T10:14:37;7.32;;;4.72;;
26756;SDS011;23848;49.798;10.228;2023-06-10T10:17:08;6.15;;;4.55;;
26756;SDS011;23848;49.798;10.228;2023-06-10T10:19:40;5.75;;;4.88;;
26756;SDS011;23848;49.798;10.228;2023-06-10T10:22:15;6.47;;;4.38;;
26756;SDS011;23848;49.798;10.228;2023-06-10T10:24:46;5.70;;;4.75;;
26756;SDS011;23848;49.798;10.228;2023-06-10T10:27:20;5.55;;;4.45;;
26756;SDS011;23848;49.798;10.228;2023-06-10T10:29:50;4.95;;;4.35;;
26756;SDS011;23848;49.798;10.228;2023-06-10T10:32:21;5.55;;;4.97;;
26756;SDS011;23848;49.798;10.228;2023-06-10T10:34:53;5.70;;;4.18;;
26756;SDS011;23848;49.798;10.228;2023-06-10T10:37:24;7.32;;;4.70;;
26756;SDS011;23848;49.798;10.228;2023-06-10T10:39:54;5.85;;;4.25;;
26756;SDS011;23848;49.798;10.228;2023-06-10T10:42:25;5.78;;;4.47;;
26756;SDS011;23848;49.798;10.228;2023-06-10T10:44:54;7.55;;;4.28;;
26756;SDS011;23848;49.798;10.228;2023-06-10T10:47:28;4.60;;;3.95;;
26756;SDS011;23848;49.798;10.228;2023-06-10T10:50:00;5.97;;;3.75;;
26756;SDS011;23848;49.798;10.228;2023-06-10T10:52:46;5.50;;;3.72;;
26756;SDS011;23848;49.798;10.228;2023-06-10T10:55:20;6.90;;;3.60;;
26756;SDS011;23848;49.798;10.228;2023-06-10T10:57:57;7.43;;;4.00;;
26756;SDS011;23848;49.798;10.228;2023-06-10T11:00:31;4.15;;;3.45;;
26756;SDS011;23848;49.798;10.228;2023-06-10T11:03:04;4.25;;;3.65;;
26756;SDS011;23848;49.798;10.228;2023-06-10T11:05:38;4.07;;;3.45;;
26756;SDS011;23848;49.798;10.228;2023-06-10T11:08:07;4.85;;;3.92;;
26756;SDS011;23848;49.798;10.228;2023-06-10T11:10:36;6.80;;;4.88;;
26756;SDS011;23848;49.798;10.228;2023-06-10T11:13:07;5.15;;;4.60;;
26756;SDS011;23848;49.798;10.228;2023-06-10T11:15:39;10.10;;;4.82;;
26756;SDS011;23848;49.798;10.228;2023-06-10T11:18:11;6.90;;;4.10;;
26756;SDS011;23848;49.798;10.228;2023-06-10T11:23:30;6.55;;;3.47;;
26756;SDS011;23848;49.798;10.228;2023-06-10T11:29:09;4.35;;;3.55;;
26756;SDS011;23848;49.798;10.228;2023-06-10T11:31:38;4.82;;;3.42;;
26756;SDS011;23848;49.798;10.228;2023-06-10T11:34:07;4.32;;;3.90;;
26756;SDS011;23848;49.798;10.228;2023-06-10T11:36:37;4.57;;;3.95;;
26756;SDS011;23848;49.798;10.228;2023-06-10T11:39:08;6.60;;;3.63;;
26756;SDS011;23848;49.798;10.228;2023-06-10T11:41:37;5.20;;;3.80;;
26756;SDS011;23848;49.798;10.228;2023-06-10T11:44:12;4.97;;;3.88;;
26756;SDS011;23848;49.798;10.228;2023-06-10T11:46:47;4.72;;;3.95;;
26756;SDS011;23848;49.798;10.228;2023-06-10T11:49:20;4.93;;;4.03;;
26756;SDS011;23848;49.798;10.228;2023-06-10T11:51:48;4.90;;;4.00;;
26756;SDS011;23848;49.798;10.228;2023-06-10T11:54:18;4.53;;;3.63;;
26756;SDS011;23848;49.798;10.228;2023-06-10T11:56:47;5.07;;;3.63;;
26756;SDS011;23848;49.798;10.228;2023-06-10T11:59:16;5.07;;;3.67;;
26756;SDS011;23848;49.798;10.228;2023-06-10T12:01:45;5.85;;;3.53;;
26756;SDS011;23848;49.798;10.228;2023-06-10T12:04:14;4.35;;;3.55;;
26756;SDS011;23848;49.798;10.228;2023-06-10T12:06:45;4.70;;;3.60;;
26756;SDS011;23848;49.798;10.228;2023-06-10T12:09:14;6.03;;;3.67;;
26756;SDS011;23848;49.798;10.228;2023-06-10T12:11:52;5.55;;;3.90;;
26756;SDS011;23848;49.798;10.228;2023-06-10T12:17:05;4.68;;;3.88;;
26756;SDS011;23848;49.798;10.228;2023-06-10T12:19:37;4.97;;;3.72;;
26756;SDS011;23848;49.798;10.228;2023-06-10T12:22:06;5.30;;;4.03;;
26756;SDS011;23848;49.798;10.228;2023-06-10T12:24:41;5.13;;;4.28;;
26756;SDS011;23848;49.798;10.228;2023-06-10T12:27:11;4.97;;;3.90;;
26756;SDS011;23848;49.798;10.228;2023-06-10T12:29:39;5.20;;;4.18;;
26756;SDS011;23848;49.798;10.228;2023-06-10T12:32:21;4.57;;;3.95;;
26756;SDS011;23848;49.798;10.228;2023-06-10T12:35:02;6.30;;;4.15;;
26756;SDS011;23848;49.798;10.228;2023-06-10T12:37:31;4.30;;;3.45;;
26756;SDS011;23848;49.798;10.228;2023-06-10T12:40:01;4.80;;;4.13;;
26756;SDS011;23848;49.798;10.228;2023-06-10T12:42:30;3.90;;;3.47;;
26756;SDS011;23848;49.798;10.228;2023-06-10T12:45:00;5.72;;;3.80;;
26756;SDS011;23848;49.798;10.228;2023-06-10T12:47:30;4.40;;;3.30;;
26756;SDS011;23848;49.798;10.228;2023-06-10T12:50:01;4.28;;;3.50;;
26756;SDS011;23848;49.798;10.228;2023-06-10T12:52:32;5.28;;;3.50;;
26756;SDS011;23848;49.798;10.228;2023-06-10T12:55:01;5.43;;;3.63;;
26756;SDS011;23848;49.798;10.228;2023-06-10T12:57:30;4.78;;;3.58;;
26756;SDS011;23848;49.798;10.228;2023-06-10T12:59:59;3.95;;;3.15;;
26756;SDS011;23848;49.798;10.228;2023-06-10T13:02:32;3.78;;;3.17;;
26756;SDS011;23848;49.798;10.228;2023-06-10T13:05:00;4.72;;;3.65;;
26756;SDS011;23848;49.798;10.228;2023-06-10T13:07:30;4.35;;;3.50;;
26756;SDS011;23848;49.798;10.228;2023-06-10T13:09:59;5.78;;;3.20;;
26756;SDS011;23848;49.798;10.228;2023-06-10T13:12:28;4.10;;;3.63;;
26756;SDS011;23848;49.798;10.228;2023-06-10T13:15:12;5.20;;;3.38;;
26756;SDS011;23848;49.798;10.228;2023-06-10T13:17:43;4.32;;;3.60;;
26756;SDS011;23848;49.798;10.228;2023-06-10T13:20:16;17.20;;;6.88;;
26756;SDS011;23848;49.798;10.228;2023-06-10T13:22:44;6.18;;;4.07;;
26756;SDS011;23848;49.798;10.228;2023-06-10T13:25:14;4.32;;;3.13;;
26756;SDS011;23848;49.798;10.228;2023-06-10T13:27:42;6.05;;;3.53;;
26756;SDS011;23848;49.798;10.228;2023-06-10T13:30:11;4.57;;;3.53;;
26756;SDS011;23848;49.798;10.228;2023-06-10T13:32:39;4.95;;;3.53;;
26756;SDS011;23848;49.798;10.228;2023-06-10T13:35:09;3.67;;;3.03;;
26756;SDS011;23848;49.798;10.228;2023-06-10T13:37:37;3.67;;;3.13;;
26756;SDS011;23848;49.798;10.228;2023-06-10T13:40:06;4.57;;;3.30;;
26756;SDS011;23848;49.798;10.228;2023-06-10T13:42:36;3.88;;;2.90;;
26756;SDS011;23848;49.798;10.228;2023-06-10T13:45:04;3.60;;;3.05;;
26756;SDS011;23848;49.798;10.228;2023-06-10T13:47:33;4.40;;;2.67;;
26756;SDS011;23848;49.798;10.228;2023-06-10T13:50:02;4.57;;;3.30;;
26756;SDS011;23848;49.798;10.228;2023-06-10T13:52:32;3.30;;;2.72;;
26756;SDS011;23848;49.798;10.228;2023-06-10T13:55:00;3.35;;;2.90;;
26756;SDS011;23848;49.798;10.228;2023-06-10T13:57:29;3.63;;;2.97;;
26756;SDS011;23848;49.798;10.228;2023-06-10T13:59:57;4.30;;;3.10;;
26756;SDS011;23848;49.798;10.228;2023-06-10T14:02:26;4.03;;;2.95;;
26756;SDS011;23848;49.798;10.228;2023-06-10T14:04:54;3.40;;;2.88;;
26756;SDS011;23848;49.798;10.228;2023-06-10T14:07:22;3.78;;;2.90;;
26756;SDS011;23848;49.798;10.228;2023-06-10T14:09:53;4.88;;;3.00;;
26756;SDS011;23848;49.798;10.228;2023-06-10T14:12:22;3.40;;;2.63;;
26756;SDS011;23848;49.798;10.228;2023-06-10T14:14:51;3.80;;;2.70;;
26756;SDS011;23848;49.798;10.228;2023-06-10T14:17:19;4.53;;;2.60;;
26756;SDS011;23848;49.798;10.228;2023-06-10T14:19:49;3.60;;;2.58;;
26756;SDS011;23848;49.798;10.228;2023-06-10T14:22:18;4.13;;;2.70;;
26756;SDS011;23848;49.798;10.228;2023-06-10T14:24:46;3.60;;;2.50;;
26756;SDS011;23848;49.798;10.228;2023-06-10T14:27:16;4.13;;;2.90;;
26756;SDS011;23848;49.798;10.228;2023-06-10T14:29:44;3.75;;;2.95;;
26756;SDS011;23848;49.798;10.228;2023-06-10T14:32:13;4.28;;;3.05;;
26756;SDS011;23848;49.798;10.228;2023-06-10T14:34:41;4.20;;;3.00;;
26756;SDS011;23848;49.798;10.228;2023-06-10T14:37:10;7.13;;;4.05;;
26756;SDS011;23848;49.798;10.228;2023-06-10T14:39:39;7.43;;;3.40;;
26756;SDS011;23848;49.798;10.228;2023-06-10T14:42:07;4.35;;;3.38;;
26756;SDS011;23848;49.798;10.228;2023-06-10T14:44:38;4.57;;;3.40;;
26756;SDS011;23848;49.798;10.228;2023-06-10T14:47:06;4.70;;;3.17;;
26756;SDS011;23848;49.798;10.228;2023-06-10T14:49:34;5.03;;;3.00;;
26756;SDS011;23848;49.798;10.228;2023-06-10T14:52:03;5.47;;;4.60;;